Time;durP1;ratioP1;P1;durP2;ratioP2;P2;SDS_P1;SDS_P2;PMS_P1;PMS_P2;Temp;Humidity;BMP_temperature;BMP_pressure;BME280_temperature;BME280_humidity;BME280_pressure;Samples;Min_cycle;Max_cycle;Signal;HPM_P1;HPM_P2
2023/03/11 00:00:24;;;;;;;1999.90;999.90;;;3.60;99.90;;;;;;5080209;28;20033;-82
2023/03/11 00:02:52;;;;;;;1999.90;999.90;;;3.60;99.90;;;;;;5079770;28;20029;-82
2023/03/11 00:05:21;;;;;;;1999.90;999.90;;;3.60;99.90;;;;;;5078583;28;20751;-82
2023/03/11 00:07:46;;;;;;;1999.90;999.90;;;3.70;99.90;;;;;;5077113;28;20120;-81
2023/03/11 00:10:22;;;;;;;1999.90;999.90;;;3.60;99.90;;;;;;5077813;28;20117;-82
2023/03/11 00:12:47;;;;;;;1999.90;999.90;;;3.70;99.90;;;;;;5079461;28;21137;-81
2023/03/11 00:15:13;;;;;;;1999.90;999.90;;;3.70;99.90;;;;;;5077383;28;20036;-81
2023/03/11 00:17:39;;;;;;;1999.90;999.90;;;3.70;99.90;;;;;;5077432;28;20108;-82
2023/03/11 00:20:15;;;;;;;1999.90;999.90;;;3.70;99.90;;;;;;5076173;28;20029;-81
2023/03/11 00:22:41;;;;;;;1999.90;999.90;;;3.70;99.90;;;;;;5076331;28;20036;-81
2023/03/11 00:25:08;;;;;;;1999.90;999.90;;;3.70;99.90;;;;;;5076022;28;20064;-82
2023/03/11 00:27:36;;;;;;;1999.90;999.90;;;3.70;99.90;;;;;;5077761;28;20029;-81
2023/03/11 00:30:01;;;;;;;1999.90;999.90;;;3.70;99.90;;;;;;5076590;28;20037;-82
2023/03/11 00:32:27;;;;;;;1999.90;999.90;;;3.80;99.90;;;;;;5077828;28;20028;-82
2023/03/11 00:34:53;;;;;;;1999.90;999.90;;;3.70;99.90;;;;;;5076835;28;20068;-81
2023/03/11 00:37:18;;;;;;;1999.90;999.90;;;3.50;99.90;;;;;;5076557;28;20032;-82
2023/03/11 00:39:44;;;;;;;1999.90;999.90;;;3.20;99.90;;;;;;5076562;28;20035;-82
2023/03/11 00:42:09;;;;;;;1999.90;999.90;;;3.00;99.90;;;;;;5076486;28;20039;-81
2023/03/11 00:44:35;;;;;;;1999.90;999.90;;;2.80;99.90;;;;;;5077576;28;20119;-81
2023/03/11 00:47:00;;;;;;;1999.90;999.90;;;2.70;99.90;;;;;;5076411;28;20033;-82
2023/03/11 00:49:26;;;;;;;1999.90;999.90;;;2.50;99.90;;;;;;5077875;28;20107;-81
2023/03/11 00:51:51;;;;;;;1999.90;999.90;;;2.50;99.90;;;;;;5076317;28;20087;-81
2023/03/11 00:54:17;;;;;;;1999.90;999.90;;;2.40;99.90;;;;;;5077414;28;20393;-81
2023/03/11 00:56:42;;;;;;;1999.90;999.90;;;2.40;99.90;;;;;;5075987;28;20037;-82
2023/03/11 00:59:08;;;;;;;1999.90;999.90;;;2.30;99.90;;;;;;5075526;28;20086;-82
2023/03/11 01:01:33;;;;;;;1999.90;999.90;;;2.30;99.90;;;;;;5076725;28;20086;-81
2023/03/11 01:03:59;;;;;;;1999.90;999.90;;;2.30;99.90;;;;;;5077628;28;20040;-81
2023/03/11 01:06:24;;;;;;;1999.90;999.90;;;2.20;99.90;;;;;;5076277;28;20499;-82
2023/03/11 01:08:50;;;;;;;1999.90;999.90;;;2.20;99.90;;;;;;5076483;28;20552;-81
2023/03/11 01:11:15;;;;;;;1999.90;999.90;;;2.10;99.90;;;;;;5077598;28;20494;-81
2023/03/11 01:13:41;;;;;;;1999.90;999.90;;;2.10;99.90;;;;;;5077968;28;20084;-82
2023/03/11 01:16:08;;;;;;;1999.90;999.90;;;2.00;99.90;;;;;;5078201;28;20068;-81
2023/03/11 01:18:33;;;;;;;1999.90;999.90;;;1.90;99.90;;;;;;5076514;28;20033;-82
2023/03/11 01:20:59;;;;;;;1999.90;999.90;;;1.90;99.90;;;;;;5079245;28;20040;-83
2023/03/11 01:23:25;;;;;;;1999.90;999.90;;;1.80;99.90;;;;;;5080281;28;20044;-85
2023/03/11 01:25:50;;;;;;;1999.90;999.90;;;1.80;99.90;;;;;;5079474;28;20037;-84
2023/03/11 01:28:16;;;;;;;1999.90;999.90;;;1.80;99.90;;;;;;5078335;28;20048;-84
2023/03/11 01:30:42;;;;;;;1999.90;999.90;;;1.70;99.90;;;;;;5078947;28;20033;-85
2023/03/11 01:33:13;;;;;;;1999.90;999.90;;;1.60;99.90;;;;;;5080884;28;20033;-84
2023/03/11 01:35:41;;;;;;;1999.90;999.90;;;1.60;99.90;;;;;;5080095;28;20037;-84
2023/03/11 01:38:06;;;;;;;1999.90;999.90;;;1.50;99.90;;;;;;5079840;28;20036;-84
2023/03/11 01:40:37;;;;;;;1999.90;999.90;;;1.50;99.90;;;;;;5082279;28;20036;-84
2023/03/11 01:43:04;;;;;;;1999.90;999.90;;;1.40;99.90;;;;;;5095808;28;20690;-85
2023/03/11 01:46:01;;;;;;;1999.90;999.90;;;1.40;99.90;;;;;;5080696;28;20510;-84
2023/03/11 01:48:28;;;;;;;1999.90;999.90;;;1.30;99.90;;;;;;5071510;28;20041;-84
2023/03/11 01:50:53;;;;;;;1999.90;999.90;;;1.30;99.90;;;;;;5075161;28;20068;-83
2023/03/11 01:53:20;;;;;;;1999.90;999.90;;;1.30;99.90;;;;;;5076516;28;20502;-84
2023/03/11 01:55:47;;;;;;;1999.90;999.90;;;1.20;99.90;;;;;;5076157;28;20128;-83
2023/03/11 01:58:43;;;;;;;1999.90;999.90;;;1.30;99.90;;;;;;5075014;28;20508;-84
2023/03/11 02:01:10;;;;;;;1999.90;999.90;;;1.20;99.90;;;;;;5074429;28;20075;-84
2023/03/11 02:03:38;;;;;;;1999.90;999.90;;;1.20;99.90;;;;;;5074686;28;20040;-84
2023/03/11 02:06:21;;;;;;;1999.90;999.90;;;1.30;99.90;;;;;;5074714;28;20119;-84
2023/03/11 02:08:47;;;;;;;1999.90;999.90;;;1.30;99.90;;;;;;5075046;28;20037;-84
2023/03/11 02:11:17;;;;;;;1999.90;999.90;;;1.30;99.90;;;;;;5076119;28;20037;-84
2023/03/11 02:13:45;;;;;;;1999.90;999.90;;;1.30;99.90;;;;;;5074708;28;20061;-85
2023/03/11 02:16:12;;;;;;;1999.90;999.90;;;1.30;99.90;;;;;;5075095;28;20809;-84
2023/03/11 02:18:38;;;;;;;1999.90;999.90;;;1.30;99.90;;;;;;5075160;28;20033;-84
2023/03/11 02:21:26;;;;;;;1999.90;999.90;;;1.20;99.90;;;;;;5074894;28;20493;-84
2023/03/11 02:24:12;;;;;;;1999.90;999.90;;;1.20;99.90;;;;;;5074519;28;20041;-85
2023/03/11 02:26:55;;;;;;;1999.90;999.90;;;1.10;99.90;;;;;;5076288;28;20108;-84
2023/03/11 02:29:23;;;;;;;1999.90;999.90;;;1.00;99.90;;;;;;5075050;28;20036;-84
2023/03/11 02:31:49;;;;;;;1999.90;999.90;;;0.90;99.90;;;;;;5074752;28;20509;-84
2023/03/11 02:34:22;;;;;;;1999.90;999.90;;;1.00;99.90;;;;;;5074248;28;20037;-84
2023/03/11 02:36:47;;;;;;;1999.90;999.90;;;1.00;99.90;;;;;;5074869;28;20033;-83
2023/03/11 02:39:13;;;;;;;1999.90;999.90;;;1.00;99.90;;;;;;5076198;28;20083;-84
2023/03/11 02:41:44;;;;;;;1999.90;999.90;;;1.00;99.90;;;;;;5074899;28;20033;-84
2023/03/11 02:44:12;;;;;;;1999.90;999.90;;;1.00;99.90;;;;;;5074881;28;20025;-84
2023/03/11 02:46:40;;;;;;;1999.90;999.90;;;1.00;99.90;;;;;;5076529;28;20043;-84
2023/03/11 02:49:06;;;;;;;1999.90;999.90;;;1.00;99.90;;;;;;5075429;28;20490;-84
2023/03/11 02:51:32;;;;;;;1999.90;999.90;;;1.10;99.90;;;;;;5076748;28;20045;-84
2023/03/11 02:54:02;;;;;;;1999.90;999.90;;;1.20;99.90;;;;;;5076120;28;20083;-84
2023/03/11 02:56:28;;;;;;;1999.90;999.90;;;1.20;99.90;;;;;;5075401;28;20556;-84
2023/03/11 02:58:53;;;;;;;1999.90;999.90;;;1.30;99.90;;;;;;5075170;28;20025;-84
2023/03/11 03:01:19;;;;;;;1999.90;999.90;;;1.30;99.90;;;;;;5075406;28;20497;-84
2023/03/11 03:03:45;;;;;;;1999.90;999.90;;;1.40;99.90;;;;;;5076791;28;20395;-84
2023/03/11 03:06:10;;;;;;;1999.90;999.90;;;1.40;99.90;;;;;;5076713;28;20411;-84
2023/03/11 03:08:36;;;;;;;1999.90;999.90;;;1.50;99.90;;;;;;5075652;28;20044;-84
2023/03/11 03:11:02;;;;;;;1999.90;999.90;;;1.50;99.90;;;;;;5077080;28;20433;-84
2023/03/11 03:13:28;;;;;;;1999.90;999.90;;;1.50;99.90;;;;;;5077273;28;20040;-84
2023/03/11 03:15:54;;;;;;;1999.90;999.90;;;1.40;99.90;;;;;;5075926;28;20037;-84
2023/03/11 03:18:20;;;;;;;1999.90;999.90;;;1.50;99.90;;;;;;5078409;28;20036;-84
2023/03/11 03:20:45;;;;;;;1999.90;999.90;;;1.50;99.90;;;;;;5078286;28;20037;-84
2023/03/11 03:23:11;;;;;;;1999.90;999.90;;;1.50;99.90;;;;;;5082390;28;20033;-84
2023/03/11 03:25:36;;;;;;;1999.90;999.90;;;1.40;99.90;;;;;;5083696;28;20033;-84
2023/03/11 03:28:02;;;;;;;1999.90;999.90;;;1.40;99.90;;;;;;5082143;28;20033;-84
2023/03/11 03:30:28;;;;;;;1999.90;999.90;;;1.40;99.90;;;;;;5081728;28;20047;-84
2023/03/11 03:32:54;;;;;;;1999.90;999.90;;;1.40;99.90;;;;;;5081808;28;20029;-84
2023/03/11 03:35:20;;;;;;;1999.90;999.90;;;1.40;99.90;;;;;;5083611;28;20422;-84
2023/03/11 03:37:45;;;;;;;1999.90;999.90;;;1.40;99.90;;;;;;5081279;28;20044;-84
2023/03/11 03:40:12;;;;;;;1999.90;999.90;;;1.40;99.90;;;;;;5081824;28;20033;-84
2023/03/11 03:42:38;;;;;;;1999.90;999.90;;;1.40;99.90;;;;;;5080923;28;20028;-83
2023/03/11 03:45:06;;;;;;;1999.90;999.90;;;1.40;99.90;;;;;;5080905;28;20033;-83
2023/03/11 03:47:33;;;;;;;1999.90;999.90;;;1.40;99.90;;;;;;5081503;28;20025;-84
2023/03/11 03:49:58;;;;;;;1999.90;999.90;;;1.40;99.90;;;;;;5081349;28;20183;-84
2023/03/11 03:52:24;;;;;;;1999.90;999.90;;;1.40;99.90;;;;;;5082262;28;20478;-84
2023/03/11 03:54:50;;;;;;;1999.90;999.90;;;1.30;99.90;;;;;;5080811;28;20044;-84
2023/03/11 03:57:15;;;;;;;1999.90;999.90;;;1.20;99.90;;;;;;5083700;28;20040;-85
2023/03/11 03:59:41;;;;;;;1999.90;999.90;;;1.20;99.90;;;;;;5084711;28;20040;-84
2023/03/11 04:02:06;;;;;;;1999.90;999.90;;;1.10;99.90;;;;;;5093702;28;20056;-84
2023/03/11 04:04:32;;;;;;;1999.90;999.90;;;1.00;99.90;;;;;;5088496;28;20501;-85
2023/03/11 04:06:58;;;;;;;1999.90;999.90;;;1.00;99.90;;;;;;5077970;28;20499;-84
2023/03/11 04:09:23;;;;;;;1999.90;999.90;;;1.00;99.90;;;;;;5079923;28;20029;-84
2023/03/11 04:11:49;;;;;;;1999.90;999.90;;;0.90;99.90;;;;;;5078423;28;20045;-84
2023/03/11 04:14:14;;;;;;;1999.90;999.90;;;0.80;99.90;;;;;;5079047;28;20414;-84
2023/03/11 04:16:40;;;;;;;1999.90;999.90;;;0.80;99.90;;;;;;5078671;28;20475;-84
2023/03/11 04:19:06;;;;;;;1999.90;999.90;;;0.90;99.90;;;;;;5078747;28;20029;-84
2023/03/11 04:21:32;;;;;;;1999.90;999.90;;;0.90;99.90;;;;;;5080194;28;20040;-83
2023/03/11 04:23:58;;;;;;;1999.90;999.90;;;0.80;99.90;;;;;;5079414;28;20144;-84
2023/03/11 04:26:23;;;;;;;1999.90;999.90;;;0.80;99.90;;;;;;5078227;28;20095;-84
2023/03/11 04:28:49;;;;;;;1999.90;999.90;;;0.70;99.90;;;;;;5078157;28;20037;-83
2023/03/11 04:31:14;;;;;;;1999.90;999.90;;;0.70;99.90;;;;;;5077899;28;20557;-84
2023/03/11 04:33:40;;;;;;;1999.90;999.90;;;0.60;99.90;;;;;;5076439;28;20025;-84
2023/03/11 04:36:07;;;;;;;1999.90;999.90;;;0.50;99.90;;;;;;5078018;28;20029;-84
2023/03/11 04:38:33;;;;;;;1999.90;999.90;;;0.40;99.90;;;;;;5079964;28;20056;-83
2023/03/11 04:41:03;;;;;;;1999.90;999.90;;;0.50;99.90;;;;;;5078110;28;20124;-84
2023/03/11 04:43:29;;;;;;;1999.90;999.90;;;0.40;99.90;;;;;;5079289;28;20033;-83
2023/03/11 04:45:55;;;;;;;1999.90;999.90;;;0.40;99.90;;;;;;5078914;28;20112;-82
2023/03/11 04:48:21;;;;;;;1999.90;999.90;;;0.40;99.90;;;;;;5081524;28;20033;-83
2023/03/11 04:50:46;;;;;;;1999.90;999.90;;;0.50;99.90;;;;;;5080737;28;20103;-82
2023/03/11 04:53:12;;;;;;;1999.90;999.90;;;0.50;99.90;;;;;;5080597;28;20375;-83
2023/03/11 04:55:38;;;;;;;1999.90;999.90;;;0.50;99.90;;;;;;5080421;28;20506;-82
2023/03/11 04:58:03;;;;;;;1999.90;999.90;;;0.40;99.90;;;;;;5078807;28;20509;-83
2023/03/11 05:00:29;;;;;;;1999.90;999.90;;;0.30;99.90;;;;;;5079053;28;20041;-82
2023/03/11 05:02:54;;;;;;;1999.90;999.90;;;0.30;99.90;;;;;;5081203;28;20033;-83
2023/03/11 05:05:20;;;;;;;1999.90;999.90;;;0.30;99.90;;;;;;5079332;28;20044;-82
2023/03/11 05:07:46;;;;;;;1999.90;999.90;;;0.20;99.90;;;;;;5079731;28;20025;-82
2023/03/11 05:10:12;;;;;;;1999.90;999.90;;;0.30;99.90;;;;;;5079301;28;20086;-82
2023/03/11 05:12:38;;;;;;;1999.90;999.90;;;0.30;99.90;;;;;;5081369;28;20029;-83
2023/03/11 05:15:04;;;;;;;1999.90;999.90;;;0.20;99.90;;;;;;5079259;28;20029;-82
2023/03/11 05:17:29;;;;;;;1999.90;999.90;;;0.20;99.90;;;;;;5081523;28;20038;-83
2023/03/11 05:19:55;;;;;;;1999.90;999.90;;;0.20;99.90;;;;;;5083004;28;20037;-82
2023/03/11 05:22:21;;;;;;;1999.90;999.90;;;0.20;99.90;;;;;;5079586;28;20044;-82
2023/03/11 05:24:46;;;;;;;1999.90;999.90;;;0.10;99.90;;;;;;5077519;28;20032;-82
2023/03/11 05:27:12;;;;;;;1999.90;999.90;;;0.20;99.90;;;;;;5080095;28;20175;-83
2023/03/11 05:29:38;;;;;;;1999.90;999.90;;;0.10;99.90;;;;;;5077907;28;20033;-82
2023/03/11 05:32:04;;;;;;;1999.90;999.90;;;0.20;99.90;;;;;;5080023;28;20045;-83
2023/03/11 05:34:29;;;;;;;1999.90;999.90;;;0.20;99.90;;;;;;5077819;28;20120;-82
2023/03/11 05:36:55;;;;;;;1999.90;999.90;;;0.30;99.90;;;;;;5078848;28;20033;-82
2023/03/11 05:39:21;;;;;;;1999.90;999.90;;;0.40;99.90;;;;;;5078826;28;20467;-82
2023/03/11 05:41:46;;;;;;;1999.90;999.90;;;0.50;99.90;;;;;;5079039;28;20033;-82
2023/03/11 05:44:12;;;;;;;1999.90;999.90;;;0.60;99.90;;;;;;5079019;28;20047;-82
2023/03/11 05:46:37;;;;;;;1999.90;999.90;;;0.70;99.90;;;;;;5080491;28;20032;-83
2023/03/11 05:49:03;;;;;;;1999.90;999.90;;;0.70;99.90;;;;;;5080276;28;20053;-82
2023/03/11 05:51:28;;;;;;;1999.90;999.90;;;0.70;99.90;;;;;;5080420;28;20143;-82
2023/03/11 05:53:54;;;;;;;1999.90;999.90;;;0.80;99.90;;;;;;5078227;28;20505;-83
2023/03/11 05:56:21;;;;;;;1999.90;999.90;;;0.80;99.90;;;;;;5079407;28;20093;-83
2023/03/11 05:58:47;;;;;;;1999.90;999.90;;;0.90;99.90;;;;;;5081693;28;20032;-83
2023/03/11 06:01:14;;;;;;;1999.90;999.90;;;0.90;99.90;;;;;;5082397;28;20087;-83
2023/03/11 06:03:41;;;;;;;1999.90;999.90;;;0.90;99.90;;;;;;5080185;28;20060;-82
2023/03/11 06:06:08;;;;;;;1999.90;999.90;;;1.00;99.90;;;;;;5079862;28;20036;-82
2023/03/11 06:08:34;;;;;;;1999.90;999.90;;;1.00;99.90;;;;;;5082047;28;20081;-83
2023/03/11 06:11:08;;;;;;;1999.90;999.90;;;1.00;99.90;;;;;;5081598;28;20037;-82
2023/03/11 06:13:35;;;;;;;1999.90;999.90;;;1.00;99.90;;;;;;5083010;28;20029;-83
2023/03/11 06:16:01;;;;;;;1999.90;999.90;;;0.90;99.90;;;;;;5084415;28;20048;-79
2023/03/11 06:18:26;;;;;;;1999.90;999.90;;;0.90;99.90;;;;;;5077469;28;20040;-84
2023/03/11 06:20:53;;;;;;;1999.90;999.90;;;0.80;99.90;;;;;;5077162;28;20526;-84
2023/03/11 06:23:19;;;;;;;1999.90;999.90;;;0.70;99.90;;;;;;5085172;28;20033;-83
2023/03/11 06:25:57;;;;;;;1999.90;999.90;;;0.60;99.90;;;;;;5078196;28;20117;-81
2023/03/11 06:28:24;;;;;;;1999.90;999.90;;;0.60;99.90;;;;;;5074516;28;20033;-83
2023/03/11 06:30:49;;;;;;;1999.90;999.90;;;0.60;99.90;;;;;;5074513;28;20522;-83
2023/03/11 06:33:15;;;;;;;1999.90;999.90;;;0.50;99.90;;;;;;5075903;28;20040;-83
2023/03/11 06:35:41;;;;;;;1999.90;999.90;;;0.50;99.90;;;;;;5075262;28;20044;-84
2023/03/11 06:38:06;;;;;;;1999.90;999.90;;;0.50;99.90;;;;;;5074734;28;20040;-83
2023/03/11 06:40:32;;;;;;;1999.90;999.90;;;0.50;99.90;;;;;;5074634;28;20040;-82
2023/03/11 06:42:58;;;;;;;1999.90;999.90;;;0.40;99.90;;;;;;5074601;28;20082;-83
2023/03/11 06:45:23;;;;;;;1999.90;999.90;;;0.40;99.90;;;;;;5074149;28;20483;-82
2023/03/11 06:47:49;;;;;;;1999.90;999.90;;;0.50;99.90;;;;;;5075348;28;20123;-82
2023/03/11 06:50:15;;;;;;;1999.90;999.90;;;0.40;99.90;;;;;;5076632;28;20044;-83
2023/03/11 06:52:40;;;;;;;1999.90;999.90;;;0.50;99.90;;;;;;5075432;28;20517;-83
2023/03/11 06:55:07;;;;;;;1999.90;999.90;;;0.50;99.90;;;;;;5076237;28;20115;-80
2023/03/11 06:57:32;;;;;;;1999.90;999.90;;;0.50;99.90;;;;;;5078235;28;20104;-82
2023/03/11 06:59:58;;;;;;;1999.90;999.90;;;0.60;99.90;;;;;;5075866;28;20107;-81
2023/03/11 07:02:23;;;;;;;1999.90;999.90;;;0.60;99.90;;;;;;5074615;28;20040;-83
2023/03/11 07:04:49;;;;;;;1999.90;999.90;;;0.70;99.90;;;;;;5074327;28;20037;-80
2023/03/11 07:07:15;;;;;;;1999.90;999.90;;;0.80;99.90;;;;;;5074960;28;20039;-82
2023/03/11 07:09:41;;;;;;;1999.90;999.90;;;0.90;99.90;;;;;;5074871;28;20063;-81
2023/03/11 07:12:07;;;;;;;1999.90;999.90;;;0.90;99.90;;;;;;5076214;28;20036;-78
2023/03/11 07:14:33;;;;;;;1999.90;999.90;;;1.00;99.90;;;;;;5073887;28;20033;-78
2023/03/11 07:16:59;;;;;;;1999.90;999.90;;;1.10;99.90;;;;;;5074403;28;20033;-78
2023/03/11 07:19:24;;;;;;;1999.90;999.90;;;1.30;99.90;;;;;;5074540;28;20433;-78
2023/03/11 07:21:50;;;;;;;1999.90;999.90;;;1.40;99.90;;;;;;5074347;28;20043;-79
2023/03/11 07:24:15;;;;;;;1999.90;999.90;;;1.50;99.90;;;;;;5074205;28;20033;-78
2023/03/11 07:26:41;;;;;;;1999.90;999.90;;;1.60;99.90;;;;;;5074430;28;20041;-77
2023/03/11 07:29:07;;;;;;;1999.90;999.90;;;1.70;99.90;;;;;;5074298;28;20032;-78
2023/03/11 07:31:34;;;;;;;1999.90;999.90;;;1.80;99.90;;;;;;5075090;28;20075;-78
2023/03/11 07:34:02;;;;;;;1999.90;999.90;;;1.90;99.90;;;;;;5058372;28;20507;-79
2023/03/11 07:36:28;;;;;;;1999.90;999.90;;;2.00;99.90;;;;;;5055619;28;20042;-77
2023/03/11 07:39:01;;;;;;;1999.90;999.90;;;2.10;99.90;;;;;;5056388;28;20025;-77
2023/03/11 07:41:28;;;;;;;1999.90;999.90;;;2.30;99.90;;;;;;5055649;28;20496;-79
2023/03/11 07:43:56;;;;;;;1999.90;999.90;;;2.40;99.90;;;;;;5054613;28;20095;-77
2023/03/11 07:46:23;;;;;;;1999.90;999.90;;;2.60;99.90;;;;;;5053146;28;20072;-78
2023/03/11 07:48:49;;;;;;;1999.90;999.90;;;2.70;99.90;;;;;;5054563;28;20105;-78
2023/03/11 07:51:19;;;;;;;1999.90;999.90;;;2.90;99.90;;;;;;5054420;28;20091;-77
2023/03/11 07:53:46;;;;;;;1999.90;999.90;;;3.00;99.90;;;;;;5053116;28;20163;-78
2023/03/11 07:56:13;;;;;;;1999.90;999.90;;;3.20;99.90;;;;;;5054918;28;20042;-77
2023/03/11 07:58:40;;;;;;;1999.90;999.90;;;3.20;99.90;;;;;;5053230;28;20036;-77
2023/03/11 08:01:15;;;;;;;1999.90;999.90;;;3.00;99.90;;;;;;5054554;28;20029;-77
2023/03/11 08:03:41;;;;;;;1999.90;999.90;;;3.00;99.90;;;;;;5054881;28;20026;-78
2023/03/11 08:06:15;;;;;;;1999.90;999.90;;;2.90;99.90;;;;;;5054463;28;20502;-76
2023/03/11 08:08:41;;;;;;;1999.90;999.90;;;2.90;99.90;;;;;;5058054;28;20029;-75
2023/03/11 08:11:07;;;;;;;1999.90;999.90;;;2.90;99.90;;;;;;5057962;28;20466;-77
2023/03/11 08:13:33;;;;;;;1999.90;999.90;;;2.90;99.90;;;;;;5057731;28;20037;-74
2023/03/11 08:16:02;;;;;;;1999.90;999.90;;;2.90;99.90;;;;;;5057312;28;20029;-77
2023/03/11 08:18:29;;;;;;;1999.90;999.90;;;2.80;99.90;;;;;;5055706;28;20054;-77
2023/03/11 08:20:55;;;;;;;1999.90;999.90;;;2.80;99.90;;;;;;5057615;28;20499;-78
2023/03/11 08:23:21;;;;;;;1999.90;999.90;;;2.70;99.90;;;;;;5056844;28;20041;-78
2023/03/11 08:25:46;;;;;;;1999.90;999.90;;;2.60;99.90;;;;;;5056097;28;20037;-76
2023/03/11 08:28:12;;;;;;;1999.90;999.90;;;2.70;99.90;;;;;;5058172;28;20029;-78
2023/03/11 08:30:37;;;;;;;1999.90;999.90;;;2.70;99.90;;;;;;5078080;28;20087;-78
2023/03/11 08:33:03;;;;;;;1999.90;999.90;;;2.80;99.90;;;;;;5056621;28;20034;-78
2023/03/11 08:35:29;;;;;;;1999.90;999.90;;;2.90;99.90;;;;;;5070414;28;20037;-78
2023/03/11 08:37:55;;;;;;;1999.90;999.90;;;2.90;99.90;;;;;;5055430;28;20029;-79
2023/03/11 08:40:20;;;;;;;1999.90;999.90;;;2.90;99.90;;;;;;5056975;28;20037;-77
2023/03/11 08:42:46;;;;;;;1999.90;999.90;;;2.70;99.90;;;;;;5077763;28;20039;-76
2023/03/11 08:45:14;;;;;;;1999.90;999.90;;;2.70;99.90;;;;;;5081332;28;20041;-77
2023/03/11 08:47:40;;;;;;;1999.90;999.90;;;2.90;99.90;;;;;;5093255;28;20060;-77
2023/03/11 08:50:12;;;;;;;1999.90;999.90;;;3.00;99.90;;;;;;5096837;28;20115;-77
2023/03/11 08:52:37;;;;;;;1999.90;999.90;;;3.40;99.90;;;;;;5095672;28;20025;-78
2023/03/11 08:55:04;;;;;;;1999.90;999.90;;;3.70;99.90;;;;;;5091393;28;20095;-77
2023/03/11 08:57:30;;;;;;;1999.90;999.90;;;3.90;99.90;;;;;;5076101;28;20465;-76
2023/03/11 08:59:57;;;;;;;1999.90;999.90;;;4.20;99.90;;;;;;5074821;28;20048;-77
2023/03/11 09:02:24;;;;;;;1999.90;999.90;;;4.10;99.90;;;;;;5076405;28;20509;-80
2023/03/11 09:04:49;;;;;;;1999.90;999.90;;;4.40;99.90;;;;;;5074440;28;20522;-77
2023/03/11 09:07:16;;;;;;;1999.90;999.90;;;4.60;99.90;;;;;;5076646;28;20033;-76
2023/03/11 09:09:41;;;;;;;1999.90;999.90;;;4.70;99.90;;;;;;5075964;28;20068;-77
2023/03/11 09:12:07;;;;;;;1999.90;999.90;;;4.60;99.90;;;;;;5076564;28;20483;-75
2023/03/11 09:14:34;;;;;;;1999.90;999.90;;;4.60;99.90;;;;;;5075620;28;20449;-77
2023/03/11 09:16:59;;;;;;;1999.90;999.90;;;4.70;99.90;;;;;;5076205;28;20033;-77
2023/03/11 09:19:25;;;;;;;1999.90;999.90;;;4.90;99.90;;;;;;5069556;28;20037;-77
2023/03/11 09:21:51;;;;;;;1999.90;999.90;;;5.10;99.90;;;;;;5055270;28;20064;-78
2023/03/11 09:24:16;;;;;;;1999.90;999.90;;;5.20;99.90;;;;;;5053874;28;20064;-77
2023/03/11 09:26:42;;;;;;;1999.90;999.90;;;5.00;99.90;;;;;;5053986;28;20041;-77
2023/03/11 09:29:08;;;;;;;1999.90;999.90;;;4.60;99.90;;;;;;5055382;28;20030;-78
2023/03/11 09:31:33;;;;;;;1999.90;999.90;;;4.50;99.90;;;;;;5054632;28;20037;-77
2023/03/11 09:34:00;;;;;;;1999.90;999.90;;;4.50;99.90;;;;;;5054736;28;20586;-77
2023/03/11 09:36:25;;;;;;;1999.90;999.90;;;4.60;99.90;;;;;;5055669;28;20033;-77
2023/03/11 09:38:51;;;;;;;1999.90;999.90;;;4.40;99.90;;;;;;5055753;28;20373;-77
2023/03/11 09:41:16;;;;;;;1999.90;999.90;;;4.40;99.90;;;;;;5055402;28;20034;-77
2023/03/11 09:43:51;;;;;;;1999.90;999.90;;;4.50;99.90;;;;;;5055231;28;20491;-78
2023/03/11 09:46:35;;;;;;;1999.90;999.90;;;4.50;99.90;;;;;;5053968;28;20128;-78
2023/03/11 09:49:32;;;;;;;1999.90;999.90;;;4.50;99.90;;;;;;5054235;28;20083;-78
2023/03/11 09:52:11;;;;;;;1999.90;999.90;;;4.50;99.90;;;;;;5055507;28;20089;-78
2023/03/11 09:54:42;;;;;;;1999.90;999.90;;;4.60;99.90;;;;;;5054905;28;20124;-78
2023/03/11 09:57:21;;;;;;;1999.90;999.90;;;4.70;99.90;;;;;;5055585;28;20044;-77
2023/03/11 09:59:47;;;;;;;1999.90;999.90;;;5.10;99.90;;;;;;5055562;28;20049;-77
2023/03/11 10:02:25;;;;;;;1999.90;999.90;;;5.50;99.90;;;;;;5053779;28;20033;-78
2023/03/11 10:04:58;;;;;;;1999.90;999.90;;;5.60;99.60;;;;;;5054975;28;20064;-77
2023/03/11 10:07:38;;;;;;;1999.90;999.90;;;5.80;98.80;;;;;;5053827;28;20037;-77
2023/03/11 10:10:05;;;;;;;1999.90;999.90;;;5.90;99.30;;;;;;5054928;28;20464;-78
2023/03/11 10:13:14;;;;;;;1999.90;999.90;;;6.00;99.90;;;;;;5053554;28;20116;-78
2023/03/11 10:15:51;;;;;;;1999.90;999.90;;;6.30;99.90;;;;;;5048706;28;20455;-78
2023/03/11 10:18:26;;;;;;;1999.90;999.90;;;6.40;99.40;;;;;;5053643;28;20038;-78
2023/03/11 10:21:18;;;;;;;1999.90;999.90;;;6.20;99.50;;;;;;5054862;28;20034;-77
2023/03/11 10:24:09;;;;;;;1999.90;999.90;;;6.30;97.10;;;;;;5054071;28;20526;-77
2023/03/11 10:26:41;;;;;;;1999.90;999.90;;;6.10;97.60;;;;;;5052985;28;20041;-78
2023/03/11 10:29:12;;;;;;;1999.90;999.90;;;5.90;97.40;;;;;;5055057;28;20031;-77
2023/03/11 10:32:00;;;;;;;1999.90;999.90;;;6.00;97.80;;;;;;5052307;28;20041;-78
2023/03/11 10:34:37;;;;;;;1999.90;999.90;;;6.20;98.00;;;;;;5053808;28;20033;-78
2023/03/11 10:37:05;;;;;;;1999.90;999.90;;;6.50;98.90;;;;;;5055101;28;20052;-77
2023/03/11 10:39:32;;;;;;;1999.90;999.90;;;6.80;98.40;;;;;;5054941;28;20040;-77
2023/03/11 10:42:03;;;;;;;1999.90;999.90;;;6.70;96.10;;;;;;5055497;28;20037;-77
2023/03/11 10:44:40;;;;;;;1999.90;999.90;;;6.50;96.60;;;;;;5054252;28;20044;-77
2023/03/11 10:47:16;;;;;;;1999.90;999.90;;;6.60;95.60;;;;;;5053412;28;20088;-76
2023/03/11 10:49:41;;;;;;;1999.90;999.90;;;6.60;97.10;;;;;;5055017;28;20021;-76
2023/03/11 10:52:07;;;;;;;1999.90;999.90;;;6.70;96.20;;;;;;5054647;28;20037;-76
2023/03/11 10:54:39;;;;;;;1999.90;999.90;;;6.60;96.00;;;;;;5054343;28;20484;-76
2023/03/11 10:57:20;;;;;;;1999.90;999.90;;;6.10;95.90;;;;;;5054733;28;20040;-77
2023/03/11 10:59:54;;;;;;;1999.90;999.90;;;6.10;96.40;;;;;;5054421;28;20037;-76
2023/03/11 11:02:36;;;;;;;1999.90;999.90;;;6.50;96.40;;;;;;5055076;28;20037;-77
2023/03/11 11:05:17;;;;;;;1999.90;999.90;;;6.90;95.50;;;;;;5052789;28;20495;-77
2023/03/11 11:07:45;;;;;;;1999.90;999.90;;;7.10;94.90;;;;;;5053240;28;20037;-77
2023/03/11 11:10:10;;;;;;;1999.90;999.90;;;7.40;95.30;;;;;;5053107;28;20037;-76
2023/03/11 11:12:37;;;;;;;1999.90;999.90;;;7.30;94.30;;;;;;5054570;28;20479;-76
2023/03/11 11:15:03;;;;;;;1999.90;999.90;;;7.20;93.80;;;;;;5054115;28;20500;-76
2023/03/11 11:17:33;;;;;;;1999.90;999.90;;;7.40;94.20;;;;;;5052692;28;20116;-76
2023/03/11 11:20:11;;;;;;;1999.90;999.90;;;7.10;93.20;;;;;;5054328;28;20477;-76
2023/03/11 11:22:38;;;;;;;1999.90;999.90;;;6.30;94.60;;;;;;5053068;28;20034;-76
2023/03/11 11:25:43;;;;;;;1999.90;999.90;;;6.20;95.40;;;;;;5054018;28;20044;-76
2023/03/11 11:28:18;;;;;;;1999.90;999.90;;;6.10;94.40;;;;;;5053238;28;20046;-76
2023/03/11 11:31:02;;;;;;;1999.90;999.90;;;6.00;93.90;;;;;;5054100;28;20089;-76
2023/03/11 11:33:46;;;;;;;1999.90;999.90;;;6.10;96.30;;;;;;5054036;28;20081;-76
2023/03/11 11:36:15;;;;;;;1999.90;999.90;;;6.00;96.20;;;;;;5054074;28;20076;-76
2023/03/11 11:38:40;;;;;;;1999.90;999.90;;;5.70;96.30;;;;;;5054131;28;20068;-76
2023/03/11 11:41:13;;;;;;;1999.90;999.90;;;5.70;96.90;;;;;;5054329;28;20042;-76
2023/03/11 11:43:46;;;;;;;1999.90;999.90;;;5.60;96.60;;;;;;5055973;28;20159;-76
2023/03/11 11:46:38;;;;;;;1999.90;999.90;;;5.80;97.10;;;;;;5057663;28;20034;-77
2023/03/11 11:49:22;;;;;;;1999.90;999.90;;;5.80;97.70;;;;;;5055928;28;20038;-76
2023/03/11 11:51:50;;;;;;;1999.90;999.90;;;6.00;98.10;;;;;;5057152;28;20030;-76
2023/03/11 11:54:37;;;;;;;1999.90;999.90;;;6.50;96.30;;;;;;5057709;28;20033;-76
2023/03/11 11:57:18;;;;;;;1999.90;999.90;;;6.80;94.20;;;;;;5057285;28;20040;-76
2023/03/11 11:59:44;;;;;;;1999.90;999.90;;;7.20;96.00;;;;;;5057467;28;20040;-76
2023/03/11 12:02:28;;;;;;;1999.90;999.90;;;7.40;95.00;;;;;;5055744;28;20128;-76
2023/03/11 12:05:09;;;;;;;1999.90;999.90;;;8.10;94.40;;;;;;5056980;28;20535;-76
2023/03/11 12:07:47;;;;;;;1999.90;999.90;;;7.60;93.10;;;;;;5057519;28;20037;-76
2023/03/11 12:10:35;;;;;;;1999.90;999.90;;;7.00;93.10;;;;;;5056939;28;20045;-77
2023/03/11 12:13:31;;;;;;;1999.90;999.90;;;7.00;92.00;;;;;;5057499;28;20116;-76
2023/03/11 12:16:09;;;;;;;1999.90;999.90;;;6.80;92.80;;;;;;5056903;28;20479;-77